| Temperature (°F) | Max | Average | Min |
|---|---|---|---|
| Max Temperature | 93 | 83.32 | 67 |
| Avg Temperature | 73.38 | 66.01 | 54.35 |
| Min Temperature | 56 | 48.26 | 34 |
| Dew Point (°F) | Max | Average | Min |
|---|---|---|---|
| Dew Point | 59 | 44.71 | 21 |
| Precipitation (in) | Max | Average | Min | Sum |
|---|---|---|---|---|
| Precipitation | 0.27 | 0.03 | 0.00 | 0.92 |
| Snowdepth | 0.00 | 0.00 | 0.00 | 0.00 |
| Wind (mph) | Max | Average | Min |
|---|---|---|---|
| Wind | 38 | 11 | 0 |
| Gust Wind | 48 | 5.96 | 0 |
| Sea Level Pressure (in) | Max | Average | Min |
|---|---|---|---|
| Sea Level Pressure | 23.35 | 23.16 | 22.97 |
| Date | Temperature (°F) | Dew Point (°F) | Humidity (%) | Wind Speed (mph) | Pressure (in) | Precipitation (in) | ||||||||||
|---|---|---|---|---|---|---|---|---|---|---|---|---|---|---|---|---|
| Max | Avg | Min | Max | Avg | Min | Max | Avg | Min | Max | Avg | Min | Max | Avg | Min | ||
| 7/31/2018 | 84 | 64.0 | 41 | 44 | 36.8 | 24 | 93 | 46.4 | 12 | 17 | 11.3 | 3 | 23.2 | 23.2 | 23.1 | 0.00 |
| 7/30/2018 | 73 | 58.1 | 42 | 49 | 40.5 | 30 | 100 | 59.8 | 22 | 15 | 4.9 | 0 | 23.3 | 23.2 | 23.2 | 0.09 |
| 7/29/2018 | 79 | 54.4 | 44 | 54 | 48.3 | 43 | 100 | 84.3 | 31 | 33 | 7.0 | 0 | 23.3 | 23.2 | 23.1 | 0.01 |
| 7/28/2018 | 79 | 57.6 | 45 | 55 | 46.8 | 35 | 100 | 75.0 | 22 | 26 | 9.6 | 0 | 23.2 | 23.1 | 23.1 | 0.16 |
| 7/27/2018 | 78 | 61.8 | 47 | 58 | 53.2 | 47 | 100 | 75.5 | 46 | 21 | 11.8 | 0 | 23.2 | 23.1 | 23.1 | 0.04 |
| 7/26/2018 | 77 | 60.7 | 45 | 52 | 48.2 | 43 | 100 | 67.9 | 33 | 22 | 9.6 | 0 | 23.2 | 23.2 | 23.1 | 0.07 |
| 7/25/2018 | 78 | 65.1 | 50 | 55 | 49.7 | 46 | 96 | 61.5 | 32 | 20 | 8.6 | 0 | 23.3 | 23.2 | 23.2 | 0.00 |
| 7/24/2018 | 88 | 64.1 | 52 | 56 | 51.1 | 34 | 100 | 73.0 | 15 | 20 | 10.1 | 0 | 23.2 | 23.2 | 23.2 | 0.00 |
| 7/23/2018 | 73 | 61.9 | 53 | 58 | 56.3 | 53 | 100 | 83.2 | 59 | 26 | 16.0 | 3 | 23.3 | 23.2 | 23.2 | 0.09 |
| 7/22/2018 | 82 | 66.2 | 54 | 56 | 50.8 | 47 | 100 | 62.6 | 30 | 23 | 11.8 | 3 | 23.3 | 23.2 | 23.1 | 0.05 |
| 7/21/2018 | 89 | 70.1 | 56 | 57 | 47.7 | 40 | 90 | 50.7 | 19 | 25 | 10.0 | 0 | 23.2 | 23.1 | 23.1 | 0.00 |
| 7/20/2018 | 90 | 72.9 | 49 | 48 | 36.1 | 23 | 80 | 34.6 | 9 | 17 | 8.0 | 0 | 23.1 | 23.1 | 23.1 | 0.00 |
| 7/19/2018 | 90 | 69.8 | 44 | 45 | 35.5 | 23 | 74 | 36.5 | 10 | 24 | 11.7 | 0 | 23.1 | 23.1 | 23.1 | 0.00 |
| 7/18/2018 | 86 | 68.0 | 48 | 52 | 38.8 | 25 | 100 | 46.8 | 11 | 28 | 12.9 | 3 | 23.1 | 23.1 | 23.1 | 0.27 |
| 7/17/2018 | 81 | 64.0 | 46 | 59 | 51.9 | 45 | 100 | 69.2 | 31 | 35 | 11.7 | 0 | 23.2 | 23.1 | 23.1 | 0.00 |
| 7/16/2018 | 83 | 62.0 | 50 | 54 | 48.4 | 30 | 100 | 70.5 | 16 | 20 | 9.3 | 0 | 23.2 | 23.2 | 23.1 | 0.05 |
| 7/15/2018 | 67 | 59.6 | 53 | 58 | 54.9 | 51 | 100 | 85.4 | 59 | 23 | 10.7 | 5 | 23.2 | 23.2 | 23.1 | 0.00 |
| 7/14/2018 | 90 | 73.3 | 52 | 52 | 44.0 | 32 | 93 | 43.5 | 14 | 22 | 10.7 | 0 | 23.2 | 23.1 | 23.1 | 0.00 |
| 7/13/2018 | 85 | 67.4 | 46 | 51 | 47.1 | 41 | 100 | 54.0 | 23 | 20 | 9.9 | 0 | 23.2 | 23.2 | 23.2 | 0.00 |
| 7/12/2018 | 75 | 63.3 | 50 | 55 | 51.5 | 44 | 100 | 68.1 | 37 | 22 | 8.6 | 0 | 23.2 | 23.1 | 23.1 | 0.00 |
| 7/11/2018 | 89 | 71.2 | 51 | 58 | 47.8 | 44 | 80 | 47.7 | 25 | 23 | 12.0 | 0 | 23.1 | 23.1 | 23.0 | 0.00 |
| 7/10/2018 | 93 | 72.6 | 53 | 49 | 42.8 | 38 | 66 | 37.8 | 17 | 17 | 10.1 | 0 | 23.2 | 23.1 | 23.1 | 0.00 |
| 7/9/2018 | 89 | 73.2 | 54 | 47 | 41.7 | 33 | 67 | 36.4 | 15 | 22 | 12.9 | 6 | 23.3 | 23.2 | 23.2 | 0.00 |
| 7/8/2018 | 91 | 73.4 | 50 | 50 | 42.4 | 34 | 75 | 39.0 | 13 | 18 | 11.1 | 0 | 23.2 | 23.2 | 23.2 | 0.00 |
| 7/7/2018 | 90 | 73.0 | 50 | 52 | 43.4 | 34 | 72 | 40.5 | 16 | 24 | 11.7 | 0 | 23.2 | 23.2 | 23.1 | 0.00 |
| 7/6/2018 | 89 | 70.4 | 50 | 50 | 43.9 | 35 | 83 | 44.4 | 15 | 23 | 11.7 | 0 | 23.4 | 23.3 | 23.2 | 0.00 |
| 7/5/2018 | 76 | 66.8 | 54 | 54 | 48.8 | 43 | 77 | 53.3 | 34 | 32 | 19.8 | 10 | 23.4 | 23.3 | 23.3 | 0.04 |
| 7/4/2018 | 86 | 66.7 | 44 | 57 | 43.8 | 30 | 89 | 47.8 | 14 | 24 | 11.1 | 0 | 23.3 | 23.2 | 23.1 | 0.02 |
| 7/3/2018 | 88 | 69.2 | 44 | 47 | 32.1 | 21 | 62 | 31.3 | 9 | 38 | 13.3 | 0 | 23.1 | 23.0 | 23.0 | 0.00 |
| 7/2/2018 | 86 | 65.7 | 45 | 37 | 30.5 | 25 | 60 | 31.5 | 14 | 20 | 11.0 | 0 | 23.1 | 23.0 | 23.0 | 0.00 |
| 7/1/2018 | 79 | 59.8 | 34 | 37 | 31.4 | 27 | 96 | 44.3 | 15 | 25 | 12.1 | 0 | 23.1 | 23.1 | 23.0 | 0.03 |